sensor_id;sensor_type;location;lat;lon;timestamp;P1;durP1;ratioP1;P2;durP2;ratioP2
16516;SDS011;8371;52.272;9.746;2024-03-25T00:01:00;0.60;;;0.60;;
16516;SDS011;8371;52.272;9.746;2024-03-25T00:03:26;0.80;;;0.80;;
16516;SDS011;8371;52.272;9.746;2024-03-25T00:05:52;0.77;;;0.77;;
16516;SDS011;8371;52.272;9.746;2024-03-25T00:08:17;0.70;;;0.70;;
16516;SDS011;8371;52.272;9.746;2024-03-25T00:10:43;1.10;;;1.10;;
16516;SDS011;8371;52.272;9.746;2024-03-25T00:13:09;0.77;;;0.77;;
16516;SDS011;8371;52.272;9.746;2024-03-25T00:15:36;0.90;;;0.90;;
16516;SDS011;8371;52.272;9.746;2024-03-25T00:18:05;0.90;;;0.60;;
16516;SDS011;8371;52.272;9.746;2024-03-25T00:20:31;0.70;;;0.70;;
16516;SDS011;8371;52.272;9.746;2024-03-25T00:22:57;0.77;;;0.57;;
16516;SDS011;8371;52.272;9.746;2024-03-25T00:25:22;0.60;;;0.60;;
16516;SDS011;8371;52.272;9.746;2024-03-25T00:27:48;0.70;;;0.70;;
16516;SDS011;8371;52.272;9.746;2024-03-25T00:30:14;0.87;;;0.80;;
16516;SDS011;8371;52.272;9.746;2024-03-25T00:32:40;0.50;;;0.50;;
16516;SDS011;8371;52.272;9.746;2024-03-25T00:35:06;1.03;;;0.70;;
16516;SDS011;8371;52.272;9.746;2024-03-25T00:37:32;0.63;;;0.53;;
16516;SDS011;8371;52.272;9.746;2024-03-25T00:39:58;0.60;;;0.60;;
16516;SDS011;8371;52.272;9.746;2024-03-25T00:42:23;0.87;;;0.87;;
16516;SDS011;8371;52.272;9.746;2024-03-25T00:44:49;0.67;;;0.67;;
16516;SDS011;8371;52.272;9.746;2024-03-25T00:47:15;1.20;;;1.20;;
16516;SDS011;8371;52.272;9.746;2024-03-25T00:49:40;0.80;;;0.80;;
16516;SDS011;8371;52.272;9.746;2024-03-25T00:52:06;1.63;;;1.00;;
16516;SDS011;8371;52.272;9.746;2024-03-25T00:54:32;0.60;;;0.60;;
16516;SDS011;8371;52.272;9.746;2024-03-25T00:56:57;1.27;;;1.17;;
16516;SDS011;8371;52.272;9.746;2024-03-25T00:59:23;1.20;;;0.87;;
16516;SDS011;8371;52.272;9.746;2024-03-25T01:01:49;2.00;;;1.20;;
16516;SDS011;8371;52.272;9.746;2024-03-25T01:04:15;1.57;;;1.20;;
16516;SDS011;8371;52.272;9.746;2024-03-25T01:06:41;1.00;;;0.97;;
16516;SDS011;8371;52.272;9.746;2024-03-25T01:09:07;0.80;;;0.80;;
16516;SDS011;8371;52.272;9.746;2024-03-25T01:11:33;1.60;;;1.00;;
16516;SDS011;8371;52.272;9.746;2024-03-25T01:13:59;1.40;;;1.07;;
16516;SDS011;8371;52.272;9.746;2024-03-25T01:16:25;1.83;;;1.30;;
16516;SDS011;8371;52.272;9.746;2024-03-25T01:18:50;0.90;;;0.90;;
16516;SDS011;8371;52.272;9.746;2024-03-25T01:21:16;2.43;;;0.90;;
16516;SDS011;8371;52.272;9.746;2024-03-25T01:23:42;1.77;;;1.10;;
16516;SDS011;8371;52.272;9.746;2024-03-25T01:26:07;1.00;;;0.90;;
16516;SDS011;8371;52.272;9.746;2024-03-25T01:28:33;1.10;;;1.00;;
16516;SDS011;8371;52.272;9.746;2024-03-25T01:31:00;0.90;;;0.77;;
16516;SDS011;8371;52.272;9.746;2024-03-25T01:33:25;2.27;;;1.27;;
16516;SDS011;8371;52.272;9.746;2024-03-25T01:35:51;1.63;;;1.10;;
16516;SDS011;8371;52.272;9.746;2024-03-25T01:38:17;0.80;;;0.80;;
16516;SDS011;8371;52.272;9.746;2024-03-25T01:40:43;0.97;;;0.97;;
16516;SDS011;8371;52.272;9.746;2024-03-25T01:43:10;1.60;;;1.50;;
16516;SDS011;8371;52.272;9.746;2024-03-25T01:45:36;1.17;;;1.07;;
16516;SDS011;8371;52.272;9.746;2024-03-25T01:48:02;1.10;;;0.97;;
16516;SDS011;8371;52.272;9.746;2024-03-25T01:50:35;1.23;;;1.13;;
16516;SDS011;8371;52.272;9.746;2024-03-25T01:53:03;1.27;;;1.20;;
16516;SDS011;8371;52.272;9.746;2024-03-25T01:55:30;1.50;;;1.07;;
16516;SDS011;8371;52.272;9.746;2024-03-25T01:57:58;1.00;;;1.00;;
16516;SDS011;8371;52.272;9.746;2024-03-25T02:00:24;1.37;;;1.27;;
16516;SDS011;8371;52.272;9.746;2024-03-25T02:02:51;2.00;;;1.10;;
16516;SDS011;8371;52.272;9.746;2024-03-25T02:05:18;2.10;;;1.40;;
16516;SDS011;8371;52.272;9.746;2024-03-25T02:07:44;1.30;;;0.83;;
16516;SDS011;8371;52.272;9.746;2024-03-25T02:10:10;1.40;;;1.30;;
16516;SDS011;8371;52.272;9.746;2024-03-25T02:12:38;1.57;;;1.50;;
16516;SDS011;8371;52.272;9.746;2024-03-25T02:15:05;1.27;;;1.03;;
16516;SDS011;8371;52.272;9.746;2024-03-25T02:17:32;1.63;;;1.20;;
16516;SDS011;8371;52.272;9.746;2024-03-25T02:19:57;1.30;;;1.20;;
16516;SDS011;8371;52.272;9.746;2024-03-25T02:22:23;1.03;;;1.00;;
16516;SDS011;8371;52.272;9.746;2024-03-25T02:24:52;1.30;;;1.20;;
16516;SDS011;8371;52.272;9.746;2024-03-25T02:27:20;1.20;;;1.17;;
16516;SDS011;8371;52.272;9.746;2024-03-25T02:29:46;0.93;;;0.93;;
16516;SDS011;8371;52.272;9.746;2024-03-25T02:32:12;1.20;;;1.20;;
16516;SDS011;8371;52.272;9.746;2024-03-25T02:34:39;0.87;;;0.87;;
16516;SDS011;8371;52.272;9.746;2024-03-25T02:37:06;2.30;;;0.73;;
16516;SDS011;8371;52.272;9.746;2024-03-25T02:39:33;0.63;;;0.63;;
16516;SDS011;8371;52.272;9.746;2024-03-25T02:41:59;0.97;;;0.97;;
16516;SDS011;8371;52.272;9.746;2024-03-25T02:44:25;0.80;;;0.80;;
16516;SDS011;8371;52.272;9.746;2024-03-25T02:46:51;1.03;;;0.97;;
16516;SDS011;8371;52.272;9.746;2024-03-25T02:49:17;0.70;;;0.70;;
16516;SDS011;8371;52.272;9.746;2024-03-25T02:51:43;0.97;;;0.97;;
16516;SDS011;8371;52.272;9.746;2024-03-25T02:54:09;1.10;;;0.80;;
16516;SDS011;8371;52.272;9.746;2024-03-25T02:56:34;0.80;;;0.80;;
16516;SDS011;8371;52.272;9.746;2024-03-25T02:59:01;0.77;;;0.77;;
16516;SDS011;8371;52.272;9.746;2024-03-25T03:01:27;1.43;;;0.93;;
16516;SDS011;8371;52.272;9.746;2024-03-25T03:03:53;0.77;;;0.77;;
16516;SDS011;8371;52.272;9.746;2024-03-25T03:06:18;1.13;;;0.97;;
16516;SDS011;8371;52.272;9.746;2024-03-25T03:08:44;1.37;;;1.10;;
16516;SDS011;8371;52.272;9.746;2024-03-25T03:11:10;1.50;;;0.80;;
16516;SDS011;8371;52.272;9.746;2024-03-25T03:13:36;0.80;;;0.80;;
16516;SDS011;8371;52.272;9.746;2024-03-25T03:16:02;0.70;;;0.70;;
16516;SDS011;8371;52.272;9.746;2024-03-25T03:18:27;1.80;;;0.70;;
16516;SDS011;8371;52.272;9.746;2024-03-25T03:20:53;1.53;;;0.80;;
16516;SDS011;8371;52.272;9.746;2024-03-25T03:23:22;1.00;;;0.90;;
16516;SDS011;8371;52.272;9.746;2024-03-25T03:25:48;0.67;;;0.67;;
16516;SDS011;8371;52.272;9.746;2024-03-25T03:28:14;1.53;;;1.03;;
16516;SDS011;8371;52.272;9.746;2024-03-25T03:30:40;0.70;;;0.70;;
16516;SDS011;8371;52.272;9.746;2024-03-25T03:33:06;1.07;;;0.70;;
16516;SDS011;8371;52.272;9.746;2024-03-25T03:35:33;1.17;;;1.17;;
16516;SDS011;8371;52.272;9.746;2024-03-25T03:37:59;0.70;;;0.70;;
16516;SDS011;8371;52.272;9.746;2024-03-25T03:40:24;1.30;;;0.80;;
16516;SDS011;8371;52.272;9.746;2024-03-25T03:42:50;0.80;;;0.80;;
16516;SDS011;8371;52.272;9.746;2024-03-25T03:45:16;0.93;;;0.90;;
16516;SDS011;8371;52.272;9.746;2024-03-25T03:47:41;0.83;;;0.83;;
16516;SDS011;8371;52.272;9.746;2024-03-25T03:50:07;1.43;;;0.80;;
16516;SDS011;8371;52.272;9.746;2024-03-25T03:52:33;0.83;;;0.70;;
16516;SDS011;8371;52.272;9.746;2024-03-25T03:54:59;0.70;;;0.70;;
16516;SDS011;8371;52.272;9.746;2024-03-25T03:57:25;0.90;;;0.90;;
16516;SDS011;8371;52.272;9.746;2024-03-25T03:59:54;1.60;;;1.00;;
16516;SDS011;8371;52.272;9.746;2024-03-25T04:02:20;0.60;;;0.60;;
16516;SDS011;8371;52.272;9.746;2024-03-25T04:04:46;2.00;;;1.13;;
16516;SDS011;8371;52.272;9.746;2024-03-25T04:07:11;1.60;;;0.80;;
16516;SDS011;8371;52.272;9.746;2024-03-25T04:09:37;0.90;;;0.90;;
16516;SDS011;8371;52.272;9.746;2024-03-25T04:12:04;1.50;;;1.10;;
16516;SDS011;8371;52.272;9.746;2024-03-25T04:14:31;1.33;;;0.73;;
16516;SDS011;8371;52.272;9.746;2024-03-25T04:16:58;0.90;;;0.67;;
16516;SDS011;8371;52.272;9.746;2024-03-25T04:19:24;1.00;;;0.90;;
16516;SDS011;8371;52.272;9.746;2024-03-25T04:21:55;0.67;;;0.67;;
16516;SDS011;8371;52.272;9.746;2024-03-25T04:24:21;0.80;;;0.80;;
16516;SDS011;8371;52.272;9.746;2024-03-25T04:26:47;0.70;;;0.57;;
16516;SDS011;8371;52.272;9.746;2024-03-25T04:29:14;0.60;;;0.60;;
16516;SDS011;8371;52.272;9.746;2024-03-25T04:31:41;1.57;;;0.90;;
16516;SDS011;8371;52.272;9.746;2024-03-25T04:34:07;1.43;;;0.77;;
16516;SDS011;8371;52.272;9.746;2024-03-25T04:36:32;0.70;;;0.70;;
16516;SDS011;8371;52.272;9.746;2024-03-25T04:38:58;1.50;;;0.80;;
16516;SDS011;8371;52.272;9.746;2024-03-25T04:41:24;0.80;;;0.77;;
16516;SDS011;8371;52.272;9.746;2024-03-25T04:43:49;1.03;;;1.00;;
16516;SDS011;8371;52.272;9.746;2024-03-25T04:46:15;1.70;;;1.07;;
16516;SDS011;8371;52.272;9.746;2024-03-25T04:48:41;1.33;;;1.23;;
16516;SDS011;8371;52.272;9.746;2024-03-25T04:51:06;0.80;;;0.80;;
16516;SDS011;8371;52.272;9.746;2024-03-25T04:53:34;1.40;;;1.30;;
16516;SDS011;8371;52.272;9.746;2024-03-25T04:55:59;1.00;;;1.00;;
16516;SDS011;8371;52.272;9.746;2024-03-25T04:58:25;1.43;;;1.10;;
16516;SDS011;8371;52.272;9.746;2024-03-25T05:00:51;3.23;;;1.20;;
16516;SDS011;8371;52.272;9.746;2024-03-25T05:03:16;2.63;;;0.90;;
16516;SDS011;8371;52.272;9.746;2024-03-25T05:05:42;1.80;;;1.20;;
16516;SDS011;8371;52.272;9.746;2024-03-25T05:08:08;2.47;;;1.60;;
16516;SDS011;8371;52.272;9.746;2024-03-25T05:10:34;2.07;;;1.23;;
16516;SDS011;8371;52.272;9.746;2024-03-25T05:12:59;1.73;;;1.27;;
16516;SDS011;8371;52.272;9.746;2024-03-25T05:15:25;1.63;;;1.40;;
16516;SDS011;8371;52.272;9.746;2024-03-25T05:17:51;2.10;;;1.60;;
16516;SDS011;8371;52.272;9.746;2024-03-25T05:20:16;1.40;;;1.30;;
16516;SDS011;8371;52.272;9.746;2024-03-25T05:22:42;3.40;;;1.17;;
16516;SDS011;8371;52.272;9.746;2024-03-25T05:25:08;1.77;;;1.17;;
16516;SDS011;8371;52.272;9.746;2024-03-25T05:27:34;3.60;;;1.43;;
16516;SDS011;8371;52.272;9.746;2024-03-25T05:29:59;1.80;;;1.03;;
16516;SDS011;8371;52.272;9.746;2024-03-25T05:32:25;1.57;;;1.47;;
16516;SDS011;8371;52.272;9.746;2024-03-25T05:34:51;3.30;;;1.33;;
16516;SDS011;8371;52.272;9.746;2024-03-25T05:37:18;2.23;;;1.27;;
16516;SDS011;8371;52.272;9.746;2024-03-25T05:39:43;4.13;;;1.73;;
16516;SDS011;8371;52.272;9.746;2024-03-25T05:42:09;2.60;;;1.53;;
16516;SDS011;8371;52.272;9.746;2024-03-25T05:44:35;2.27;;;1.60;;
16516;SDS011;8371;52.272;9.746;2024-03-25T05:47:01;4.77;;;1.80;;
16516;SDS011;8371;52.272;9.746;2024-03-25T05:49:26;3.93;;;1.30;;
16516;SDS011;8371;52.272;9.746;2024-03-25T05:51:52;3.70;;;1.30;;
16516;SDS011;8371;52.272;9.746;2024-03-25T05:54:18;2.83;;;1.20;;
16516;SDS011;8371;52.272;9.746;2024-03-25T05:56:44;1.20;;;1.07;;
16516;SDS011;8371;52.272;9.746;2024-03-25T05:59:09;1.53;;;1.30;;
16516;SDS011;8371;52.272;9.746;2024-03-25T06:01:35;2.07;;;1.10;;
16516;SDS011;8371;52.272;9.746;2024-03-25T06:04:03;3.13;;;1.17;;
16516;SDS011;8371;52.272;9.746;2024-03-25T06:06:29;2.23;;;1.17;;
16516;SDS011;8371;52.272;9.746;2024-03-25T06:08:55;1.57;;;1.47;;
16516;SDS011;8371;52.272;9.746;2024-03-25T06:11:20;3.67;;;1.40;;
16516;SDS011;8371;52.272;9.746;2024-03-25T06:13:46;3.63;;;1.30;;
16516;SDS011;8371;52.272;9.746;2024-03-25T06:16:13;2.00;;;1.13;;
16516;SDS011;8371;52.272;9.746;2024-03-25T06:18:39;3.37;;;1.77;;
16516;SDS011;8371;52.272;9.746;2024-03-25T06:21:05;4.90;;;1.20;;
16516;SDS011;8371;52.272;9.746;2024-03-25T06:23:31;1.67;;;1.50;;
16516;SDS011;8371;52.272;9.746;2024-03-25T06:25:58;1.53;;;1.43;;
16516;SDS011;8371;52.272;9.746;2024-03-25T06:28:24;1.17;;;1.17;;
16516;SDS011;8371;52.272;9.746;2024-03-25T06:30:50;0.83;;;0.83;;
16516;SDS011;8371;52.272;9.746;2024-03-25T06:33:35;1.40;;;1.10;;
16516;SDS011;8371;52.272;9.746;2024-03-25T06:36:19;1.40;;;1.00;;
16516;SDS011;8371;52.272;9.746;2024-03-25T06:38:45;1.47;;;1.37;;
16516;SDS011;8371;52.272;9.746;2024-03-25T06:41:11;2.83;;;1.17;;
16516;SDS011;8371;52.272;9.746;2024-03-25T06:43:37;1.23;;;1.07;;
16516;SDS011;8371;52.272;9.746;2024-03-25T06:46:05;2.43;;;1.50;;
16516;SDS011;8371;52.272;9.746;2024-03-25T06:48:32;1.93;;;1.30;;
16516;SDS011;8371;52.272;9.746;2024-03-25T06:51:00;1.80;;;1.43;;
16516;SDS011;8371;52.272;9.746;2024-03-25T06:53:26;2.80;;;1.20;;
16516;SDS011;8371;52.272;9.746;2024-03-25T06:55:55;1.30;;;1.30;;
16516;SDS011;8371;52.272;9.746;2024-03-25T06:58:23;2.27;;;1.17;;
16516;SDS011;8371;52.272;9.746;2024-03-25T07:00:50;3.97;;;1.70;;
16516;SDS011;8371;52.272;9.746;2024-03-25T07:03:16;3.07;;;1.50;;
16516;SDS011;8371;52.272;9.746;2024-03-25T07:05:45;4.97;;;1.43;;
16516;SDS011;8371;52.272;9.746;2024-03-25T07:08:12;4.47;;;1.33;;
16516;SDS011;8371;52.272;9.746;2024-03-25T07:10:38;2.20;;;1.67;;
16516;SDS011;8371;52.272;9.746;2024-03-25T07:13:04;4.17;;;1.60;;
16516;SDS011;8371;52.272;9.746;2024-03-25T07:15:31;2.70;;;1.50;;
16516;SDS011;8371;52.272;9.746;2024-03-25T07:17:56;1.37;;;1.00;;
16516;SDS011;8371;52.272;9.746;2024-03-25T07:20:23;1.57;;;1.10;;
16516;SDS011;8371;52.272;9.746;2024-03-25T07:22:49;1.13;;;1.00;;
16516;SDS011;8371;52.272;9.746;2024-03-25T07:25:14;1.57;;;1.40;;
16516;SDS011;8371;52.272;9.746;2024-03-25T07:27:40;2.63;;;1.60;;
16516;SDS011;8371;52.272;9.746;2024-03-25T07:30:07;1.47;;;1.37;;
16516;SDS011;8371;52.272;9.746;2024-03-25T07:32:33;3.03;;;1.17;;
16516;SDS011;8371;52.272;9.746;2024-03-25T07:35:00;1.80;;;1.70;;
16516;SDS011;8371;52.272;9.746;2024-03-25T07:37:25;3.63;;;1.43;;
16516;SDS011;8371;52.272;9.746;2024-03-25T07:39:51;1.73;;;1.53;;
16516;SDS011;8371;52.272;9.746;2024-03-25T07:42:18;1.97;;;1.40;;
16516;SDS011;8371;52.272;9.746;2024-03-25T07:44:44;1.57;;;1.30;;
16516;SDS011;8371;52.272;9.746;2024-03-25T07:47:10;1.93;;;1.30;;
16516;SDS011;8371;52.272;9.746;2024-03-25T07:49:36;2.47;;;1.23;;
16516;SDS011;8371;52.272;9.746;2024-03-25T07:52:02;1.50;;;1.37;;
16516;SDS011;8371;52.272;9.746;2024-03-25T07:54:28;1.70;;;1.37;;
16516;SDS011;8371;52.272;9.746;2024-03-25T07:56:54;3.00;;;1.70;;
16516;SDS011;8371;52.272;9.746;2024-03-25T07:59:20;2.20;;;1.80;;
16516;SDS011;8371;52.272;9.746;2024-03-25T08:01:45;1.60;;;1.50;;
16516;SDS011;8371;52.272;9.746;2024-03-25T08:04:11;2.07;;;1.20;;
16516;SDS011;8371;52.272;9.746;2024-03-25T08:06:37;3.33;;;1.50;;
16516;SDS011;8371;52.272;9.746;2024-03-25T08:09:02;5.13;;;1.60;;
16516;SDS011;8371;52.272;9.746;2024-03-25T08:11:31;2.13;;;1.43;;
16516;SDS011;8371;52.272;9.746;2024-03-25T08:13:58;6.33;;;1.67;;
16516;SDS011;8371;52.272;9.746;2024-03-25T08:16:24;3.20;;;1.97;;
16516;SDS011;8371;52.272;9.746;2024-03-25T08:18:50;6.87;;;1.60;;
16516;SDS011;8371;52.272;9.746;2024-03-25T08:21:16;2.10;;;1.10;;
16516;SDS011;8371;52.272;9.746;2024-03-25T08:23:45;2.50;;;1.30;;
16516;SDS011;8371;52.272;9.746;2024-03-25T08:26:11;5.63;;;1.63;;
16516;SDS011;8371;52.272;9.746;2024-03-25T08:28:37;2.47;;;1.53;;
16516;SDS011;8371;52.272;9.746;2024-03-25T08:31:03;6.07;;;1.70;;
16516;SDS011;8371;52.272;9.746;2024-03-25T08:33:29;4.37;;;1.27;;
16516;SDS011;8371;52.272;9.746;2024-03-25T08:35:56;4.63;;;1.37;;
16516;SDS011;8371;52.272;9.746;2024-03-25T08:38:21;1.23;;;1.07;;
16516;SDS011;8371;52.272;9.746;2024-03-25T08:40:47;1.70;;;1.13;;
16516;SDS011;8371;52.272;9.746;2024-03-25T08:43:13;2.43;;;1.47;;
16516;SDS011;8371;52.272;9.746;2024-03-25T08:45:38;1.90;;;1.40;;
16516;SDS011;8371;52.272;9.746;2024-03-25T08:48:06;4.63;;;1.30;;
16516;SDS011;8371;52.272;9.746;2024-03-25T08:50:32;1.40;;;1.20;;
16516;SDS011;8371;52.272;9.746;2024-03-25T08:52:58;1.37;;;1.20;;
16516;SDS011;8371;52.272;9.746;2024-03-25T08:55:23;3.07;;;1.80;;
16516;SDS011;8371;52.272;9.746;2024-03-25T08:57:49;1.30;;;1.20;;
16516;SDS011;8371;52.272;9.746;2024-03-25T09:00:17;2.50;;;1.20;;
16516;SDS011;8371;52.272;9.746;2024-03-25T09:02:43;1.53;;;1.13;;
16516;SDS011;8371;52.272;9.746;2024-03-25T09:05:09;2.77;;;1.50;;
16516;SDS011;8371;52.272;9.746;2024-03-25T09:07:35;2.67;;;1.00;;
16516;SDS011;8371;52.272;9.746;2024-03-25T09:10:02;5.67;;;1.47;;
16516;SDS011;8371;52.272;9.746;2024-03-25T09:12:46;2.53;;;1.73;;
16516;SDS011;8371;52.272;9.746;2024-03-25T09:15:12;5.00;;;1.03;;
16516;SDS011;8371;52.272;9.746;2024-03-25T09:17:40;2.90;;;1.17;;
16516;SDS011;8371;52.272;9.746;2024-03-25T09:20:06;1.73;;;1.20;;
16516;SDS011;8371;52.272;9.746;2024-03-25T09:22:46;3.40;;;1.00;;
16516;SDS011;8371;52.272;9.746;2024-03-25T09:25:15;1.93;;;1.23;;
16516;SDS011;8371;52.272;9.746;2024-03-25T09:27:41;2.03;;;1.83;;
16516;SDS011;8371;52.272;9.746;2024-03-25T09:30:12;2.40;;;1.63;;
16516;SDS011;8371;52.272;9.746;2024-03-25T09:32:39;1.40;;;0.93;;
16516;SDS011;8371;52.272;9.746;2024-03-25T09:35:06;2.03;;;1.10;;
16516;SDS011;8371;52.272;9.746;2024-03-25T09:37:32;1.47;;;1.07;;
16516;SDS011;8371;52.272;9.746;2024-03-25T09:39:58;1.30;;;1.20;;
16516;SDS011;8371;52.272;9.746;2024-03-25T09:45:10;1.30;;;1.10;;
16516;SDS011;8371;52.272;9.746;2024-03-25T09:47:38;2.13;;;1.50;;
16516;SDS011;8371;52.272;9.746;2024-03-25T09:50:06;4.23;;;1.47;;
16516;SDS011;8371;52.272;9.746;2024-03-25T09:52:54;0.97;;;0.87;;
16516;SDS011;8371;52.272;9.746;2024-03-25T09:55:20;2.37;;;1.20;;
16516;SDS011;8371;52.272;9.746;2024-03-25T09:57:46;1.40;;;1.00;;
16516;SDS011;8371;52.272;9.746;2024-03-25T10:00:13;1.13;;;1.00;;
16516;SDS011;8371;52.272;9.746;2024-03-25T10:02:40;1.47;;;1.00;;
16516;SDS011;8371;52.272;9.746;2024-03-25T10:05:06;1.30;;;1.00;;
16516;SDS011;8371;52.272;9.746;2024-03-25T10:07:33;2.77;;;1.40;;
16516;SDS011;8371;52.272;9.746;2024-03-25T10:10:03;1.17;;;0.83;;
16516;SDS011;8371;52.272;9.746;2024-03-25T10:12:30;0.93;;;0.93;;
16516;SDS011;8371;52.272;9.746;2024-03-25T10:14:56;1.77;;;1.13;;
16516;SDS011;8371;52.272;9.746;2024-03-25T10:17:22;3.10;;;1.20;;
16516;SDS011;8371;52.272;9.746;2024-03-25T10:19:48;2.40;;;1.33;;
16516;SDS011;8371;52.272;9.746;2024-03-25T10:22:14;1.60;;;1.00;;
16516;SDS011;8371;52.272;9.746;2024-03-25T10:24:43;3.57;;;1.20;;
16516;SDS011;8371;52.272;9.746;2024-03-25T10:27:17;1.73;;;1.30;;
16516;SDS011;8371;52.272;9.746;2024-03-25T10:29:46;1.03;;;1.03;;
16516;SDS011;8371;52.272;9.746;2024-03-25T10:32:15;0.90;;;0.90;;
16516;SDS011;8371;52.272;9.746;2024-03-25T10:34:41;4.53;;;1.07;;
16516;SDS011;8371;52.272;9.746;2024-03-25T10:37:08;1.43;;;1.33;;
16516;SDS011;8371;52.272;9.746;2024-03-25T10:39:38;0.70;;;0.70;;
16516;SDS011;8371;52.272;9.746;2024-03-25T10:42:07;0.90;;;0.90;;
16516;SDS011;8371;52.272;9.746;2024-03-25T10:44:36;1.20;;;0.97;;
16516;SDS011;8371;52.272;9.746;2024-03-25T10:47:02;2.17;;;0.97;;
16516;SDS011;8371;52.272;9.746;2024-03-25T10:52:17;1.33;;;1.13;;
16516;SDS011;8371;52.272;9.746;2024-03-25T10:54:44;1.00;;;0.90;;
16516;SDS011;8371;52.272;9.746;2024-03-25T10:57:14;0.70;;;0.70;;
16516;SDS011;8371;52.272;9.746;2024-03-25T10:59:42;0.90;;;0.90;;
16516;SDS011;8371;52.272;9.746;2024-03-25T11:02:09;0.80;;;0.80;;
16516;SDS011;8371;52.272;9.746;2024-03-25T11:04:36;0.50;;;0.50;;
16516;SDS011;8371;52.272;9.746;2024-03-25T11:07:06;0.83;;;0.57;;
16516;SDS011;8371;52.272;9.746;2024-03-25T11:09:35;0.90;;;0.90;;
16516;SDS011;8371;52.272;9.746;2024-03-25T11:12:03;1.00;;;1.00;;
16516;SDS011;8371;52.272;9.746;2024-03-25T11:14:30;1.87;;;0.87;;
16516;SDS011;8371;52.272;9.746;2024-03-25T11:16:59;1.60;;;1.40;;
16516;SDS011;8371;52.272;9.746;2024-03-25T11:19:26;1.00;;;0.80;;
16516;SDS011;8371;52.272;9.746;2024-03-25T11:21:54;0.77;;;0.63;;
16516;SDS011;8371;52.272;9.746;2024-03-25T11:24:30;1.40;;;1.30;;
16516;SDS011;8371;52.272;9.746;2024-03-25T11:26:54;0.73;;;0.60;;
16516;SDS011;8371;52.272;9.746;2024-03-25T11:29:21;1.33;;;0.73;;
16516;SDS011;8371;52.272;9.746;2024-03-25T11:31:48;2.47;;;0.83;;
16516;SDS011;8371;52.272;9.746;2024-03-25T11:34:15;1.13;;;0.70;;
16516;SDS011;8371;52.272;9.746;2024-03-25T11:36:41;1.70;;;1.60;;
16516;SDS011;8371;52.272;9.746;2024-03-25T11:39:07;7.83;;;1.23;;
16516;SDS011;8371;52.272;9.746;2024-03-25T11:41:40;1.17;;;0.90;;
16516;SDS011;8371;52.272;9.746;2024-03-25T11:44:11;1.90;;;0.83;;
16516;SDS011;8371;52.272;9.746;2024-03-25T11:46:40;1.47;;;1.37;;
16516;SDS011;8371;52.272;9.746;2024-03-25T11:49:07;4.20;;;1.37;;
16516;SDS011;8371;52.272;9.746;2024-03-25T11:51:35;1.20;;;1.10;;
16516;SDS011;8371;52.272;9.746;2024-03-25T11:54:03;1.67;;;0.90;;
16516;SDS011;8371;52.272;9.746;2024-03-25T11:56:32;1.00;;;0.80;;
16516;SDS011;8371;52.272;9.746;2024-03-25T11:59:02;1.33;;;1.23;;
16516;SDS011;8371;52.272;9.746;2024-03-25T12:01:26;1.00;;;0.80;;
16516;SDS011;8371;52.272;9.746;2024-03-25T12:03:52;1.07;;;0.93;;
16516;SDS011;8371;52.272;9.746;2024-03-25T12:06:18;1.73;;;1.10;;
16516;SDS011;8371;52.272;9.746;2024-03-25T12:08:43;1.63;;;0.90;;
16516;SDS011;8371;52.272;9.746;2024-03-25T12:11:11;1.33;;;0.90;;
16516;SDS011;8371;52.272;9.746;2024-03-25T12:13:43;0.90;;;0.77;;
16516;SDS011;8371;52.272;9.746;2024-03-25T12:16:09;0.90;;;0.67;;
16516;SDS011;8371;52.272;9.746;2024-03-25T12:18:35;1.40;;;0.80;;
16516;SDS011;8371;52.272;9.746;2024-03-25T12:21:05;1.70;;;1.40;;
16516;SDS011;8371;52.272;9.746;2024-03-25T12:23:31;0.97;;;0.93;;
16516;SDS011;8371;52.272;9.746;2024-03-25T12:26:01;1.53;;;0.90;;
16516;SDS011;8371;52.272;9.746;2024-03-25T12:28:27;1.73;;;1.07;;
16516;SDS011;8371;52.272;9.746;2024-03-25T12:30:53;2.23;;;0.87;;
16516;SDS011;8371;52.272;9.746;2024-03-25T12:33:22;1.47;;;1.10;;
16516;SDS011;8371;52.272;9.746;2024-03-25T12:35:48;0.93;;;0.83;;
16516;SDS011;8371;52.272;9.746;2024-03-25T12:38:28;2.77;;;1.07;;
16516;SDS011;8371;52.272;9.746;2024-03-25T12:41:05;2.10;;;0.97;;
16516;SDS011;8371;52.272;9.746;2024-03-25T12:43:37;1.00;;;0.90;;
16516;SDS011;8371;52.272;9.746;2024-03-25T12:46:07;1.80;;;0.90;;
16516;SDS011;8371;52.272;9.746;2024-03-25T12:48:34;2.37;;;1.03;;
16516;SDS011;8371;52.272;9.746;2024-03-25T12:51:01;5.37;;;0.80;;
16516;SDS011;8371;52.272;9.746;2024-03-25T12:53:26;0.90;;;0.90;;
16516;SDS011;8371;52.272;9.746;2024-03-25T12:55:52;1.20;;;1.10;;
16516;SDS011;8371;52.272;9.746;2024-03-25T12:58:18;1.03;;;0.60;;
16516;SDS011;8371;52.272;9.746;2024-03-25T13:00:44;1.23;;;0.80;;
16516;SDS011;8371;52.272;9.746;2024-03-25T13:03:10;0.97;;;0.87;;
16516;SDS011;8371;52.272;9.746;2024-03-25T13:05:37;1.33;;;0.70;;
16516;SDS011;8371;52.272;9.746;2024-03-25T13:08:04;0.50;;;0.50;;
16516;SDS011;8371;52.272;9.746;2024-03-25T13:10:30;1.20;;;0.60;;
16516;SDS011;8371;52.272;9.746;2024-03-25T13:12:56;1.10;;;1.00;;
16516;SDS011;8371;52.272;9.746;2024-03-25T13:15:22;1.73;;;1.00;;
16516;SDS011;8371;52.272;9.746;2024-03-25T13:17:48;2.23;;;0.93;;
16516;SDS011;8371;52.272;9.746;2024-03-25T13:20:14;3.23;;;0.73;;
16516;SDS011;8371;52.272;9.746;2024-03-25T13:22:40;0.53;;;0.53;;
16516;SDS011;8371;52.272;9.746;2024-03-25T13:25:06;0.87;;;0.87;;
16516;SDS011;8371;52.272;9.746;2024-03-25T13:27:32;0.90;;;0.90;;
16516;SDS011;8371;52.272;9.746;2024-03-25T13:29:58;3.20;;;1.00;;
16516;SDS011;8371;52.272;9.746;2024-03-25T13:32:24;0.53;;;0.53;;
16516;SDS011;8371;52.272;9.746;2024-03-25T13:34:50;1.73;;;0.97;;
16516;SDS011;8371;52.272;9.746;2024-03-25T13:37:16;0.50;;;0.50;;
16516;SDS011;8371;52.272;9.746;2024-03-25T13:39:41;1.53;;;0.77;;
16516;SDS011;8371;52.272;9.746;2024-03-25T13:42:07;2.03;;;0.70;;
16516;SDS011;8371;52.272;9.746;2024-03-25T13:44:33;0.93;;;0.93;;
16516;SDS011;8371;52.272;9.746;2024-03-25T13:46:58;0.87;;;0.87;;
16516;SDS011;8371;52.272;9.746;2024-03-25T13:49:24;0.40;;;0.40;;
16516;SDS011;8371;52.272;9.746;2024-03-25T13:51:50;0.73;;;0.70;;
16516;SDS011;8371;52.272;9.746;2024-03-25T13:54:18;0.70;;;0.70;;
16516;SDS011;8371;52.272;9.746;2024-03-25T13:56:44;1.27;;;0.73;;
16516;SDS011;8371;52.272;9.746;2024-03-25T13:59:10;1.17;;;0.67;;
16516;SDS011;8371;52.272;9.746;2024-03-25T14:01:36;0.87;;;0.53;;
16516;SDS011;8371;52.272;9.746;2024-03-25T14:04:02;0.87;;;0.60;;
16516;SDS011;8371;52.272;9.746;2024-03-25T14:06:32;1.13;;;0.80;;
16516;SDS011;8371;52.272;9.746;2024-03-25T14:09:01;0.80;;;0.70;;
16516;SDS011;8371;52.272;9.746;2024-03-25T14:11:26;0.40;;;0.33;;
16516;SDS011;8371;52.272;9.746;2024-03-25T14:13:52;0.80;;;0.77;;
16516;SDS011;8371;52.272;9.746;2024-03-25T14:16:18;2.13;;;0.77;;
16516;SDS011;8371;52.272;9.746;2024-03-25T14:18:43;1.00;;;1.00;;
16516;SDS011;8371;52.272;9.746;2024-03-25T14:21:09;0.87;;;0.60;;
16516;SDS011;8371;52.272;9.746;2024-03-25T14:23:35;0.67;;;0.67;;
16516;SDS011;8371;52.272;9.746;2024-03-25T14:26:01;1.00;;;0.80;;
16516;SDS011;8371;52.272;9.746;2024-03-25T14:28:26;0.50;;;0.50;;
16516;SDS011;8371;52.272;9.746;2024-03-25T14:30:52;0.60;;;0.60;;
16516;SDS011;8371;52.272;9.746;2024-03-25T14:33:18;0.83;;;0.80;;
16516;SDS011;8371;52.272;9.746;2024-03-25T14:35:44;0.60;;;0.60;;
16516;SDS011;8371;52.272;9.746;2024-03-25T14:38:10;0.97;;;0.80;;
16516;SDS011;8371;52.272;9.746;2024-03-25T14:40:39;1.20;;;0.73;;
16516;SDS011;8371;52.272;9.746;2024-03-25T14:43:05;1.17;;;0.87;;
16516;SDS011;8371;52.272;9.746;2024-03-25T14:45:30;0.73;;;0.70;;
16516;SDS011;8371;52.272;9.746;2024-03-25T14:47:56;1.93;;;0.70;;
16516;SDS011;8371;52.272;9.746;2024-03-25T14:50:21;1.47;;;0.70;;
16516;SDS011;8371;52.272;9.746;2024-03-25T14:52:47;0.37;;;0.37;;
16516;SDS011;8371;52.272;9.746;2024-03-25T14:55:13;0.40;;;0.40;;
16516;SDS011;8371;52.272;9.746;2024-03-25T14:57:39;1.90;;;0.80;;
16516;SDS011;8371;52.272;9.746;2024-03-25T15:00:05;0.63;;;0.63;;
16516;SDS011;8371;52.272;9.746;2024-03-25T15:02:31;0.80;;;0.80;;